Startex, South Carolina
Current Conditions -  °F | °C
As of 4:53 PM on Friday 24 Oct 2014 (Local Time) from KGSP Reporting Station
Clear Clear  
Wind Chill: 68°   Ceiling: Unl
Heat Index: 68°   Visibility: 10mi
Dew Point: 44°   Wind: 0mph
Humidity: 42%   Direction: NA
Pressure: 29.99"   Gusts: NA
Location:  34.93°N, 82.1°W
Report Text: KGSP 242053Z 00000KT 10SM CLR 20/07 A2999 RMK AO2 SLP150 T02000067 56014
Loading
Personal Weather Stations






























Interactive Weather Map
Tropical Storm Tracking
New forecast layout! Learn more

10-Day Weather Forecast

Advertisements
Track Severe Weather on mobile